Sunday, May 27, 2018, 11:45 AM EDT
Back to Local

KMDT, Harrisburg International Airport

Location: Middletown, PA, United States Lat: 40.2
Local Time: 11:45 AM EDT (15:45 GMT) Lon: -76.767
Time Zone: US/Eastern Elev: 308 ft

Show me the last for .
Show Decoded

2018-05-27 10:56 METAR KMDT 271456Z 09006KT 9SM BKN025 OVC080 26/20 A2994 RMK AO2 SLP138
                 T02560200 51007 =
2018-05-27 09:56 METAR KMDT 271356Z 06008KT 8SM FEW025 SCT120 BKN180 26/19 A2994 RMK AO2 SLP135
                 T02560194 =
2018-05-27 08:56 METAR KMDT 271256Z 02003KT 9SM SCT100 BKN180 BKN250 24/20 A2992 RMK AO2 SLP131
                 T02440200 =
2018-05-27 07:56 METAR KMDT 271156Z 30005KT 10SM SCT055 BKN110 BKN200 23/19 A2990 RMK AO2 SLP124
                 60000 T02280194 10239 20211 53013 =
2018-05-27 06:56 METAR KMDT 271056Z 31005KT 10SM SCT042 BKN085 BKN140 23/21 A2989 RMK AO2 SLP119
                 T02330206 =
2018-05-27 05:56 METAR KMDT 270956Z 30004KT 7SM BKN100 BKN140 22/21 A2987 RMK AO2 SLP114
                 T02170206 =
2018-05-27 04:56 METAR KMDT 270856Z 00000KT 8SM BKN100 OVC140 22/21 A2986 RMK AO2 SLP111 CB DSNT
                 E 60000 T02220206 53002 =
2018-05-27 03:56 METAR KMDT 270756Z 00000KT 9SM BKN095 OVC110 22/21 A2985 RMK AO2 RAE27 SLP107
                 VCSH E P0000 T02220206 =
2018-05-27 02:56 METAR KMDT 270656Z 00000KT 8SM -RA BKN110 OVC130 22/21 A2985 RMK AO2 RAB54
                 SLP106 P0000 T02220206 =
2018-05-27 01:56 METAR KMDT 270556Z 00000KT 10SM BKN085 OVC150 24/21 A2986 RMK AO2 SLP108 VCSH N
                 AND S T02390206 10261 20222 58000 =
2018-05-27 00:56 METAR KMDT 270456Z 13005KT 10SM FEW060 SCT130 BKN150 22/20 A2986 RMK AO2 SLP110
                 T02220200 403220189 =
2018-05-26 23:56 METAR KMDT 270356Z 13004KT 10SM BKN075 24/19 A2987 RMK AO2 SLP112 T02390194 =
2018-05-26 22:56 METAR KMDT 270256Z 13003KT 9SM BKN080 23/19 A2986 RMK AO2 SLP109 T02280194 51015
                 =
2018-05-26 21:56 METAR KMDT 270156Z 20003KT 10SM BKN080 25/19 A2985 RMK AO2 SLP104 T02500189 =
2018-05-26 20:56 METAR KMDT 270056Z VRB03KT 10SM BKN080 26/18 A2983 RMK AO2 SLP099 T02560183 =
2018-05-26 19:56 METAR KMDT 262356Z 22012KT 10SM SCT080 BKN180 26/17 A2981 RMK AO2 PK WND
                 25029/2310 SLP093 TSE24 T02560167 10322 20250 53008 =
2018-05-26 19:31 METAR KMDT 262331Z 22014G26KT 10SM SCT085 SCT180 26/18 A2981 RMK AO2 PK WND
                 25029/2310 TSE24 T02560183 =
2018-05-26 19:11 METAR KMDT 262311Z 23022G29KT 10SM VCTS SCT070 SCT180 29/17 A2981 RMK AO2 PK WND
                 25029/2310 LTG DSNT S AND SW TSE05 T02890172 =
2018-05-26 18:56 METAR KMDT 262256Z 20003KT 10SM SCT070 SCT180 27/19 A2980 RMK AO2 LTG DSNT SW
                 SLP090 T02720189 =
2018-05-26 17:56 METAR KMDT 262156Z 00000KT 10SM FEW070 SCT180 29/17 A2979 RMK AO2 LTG DSNT SW
                 SLP085 T02940172 =
2018-05-26 16:56 METAR KMDT 262056Z VRB04KT 10SM FEW050 SCT180 32/15 A2979 RMK AO2 SLP085
                 T03220150 55009 =
2018-05-26 15:56 METAR KMDT 261956Z 29008KT 10SM FEW050 FEW200 32/14 A2978 RMK AO2 SLP083
                 T03220139 =
2018-05-26 14:56 METAR KMDT 261856Z 28007KT 10SM SCT070 31/16 A2980 RMK AO2 SLP089 T03110156 =
2018-05-26 13:56 METAR KMDT 261756Z 29007KT 10SM SCT055 31/19 A2982 RMK AO2 SLP094 T03060194
                 10311 20217 58009 =
2018-05-26 12:56 METAR KMDT 261656Z 00000KT 10SM SCT030 31/19 A2983 RMK AO2 SLP100 T03060194 =
2018-05-26 11:56 METAR KMDT 261556Z 29004KT 10SM FEW025 SCT180 29/21 A2984 RMK AO2 SLP102
                 T02940206 =

Support USWX by starting your Amazon purchase here.